createdAt,value
2023-02-05T00:00:58.322Z,1.90
2023-02-05T00:03:25.680Z,0.50
2023-02-05T00:05:53.043Z,0.83
2023-02-05T00:08:20.307Z,0.80
2023-02-05T00:10:52.620Z,0.40
2023-02-05T00:13:20.046Z,0.40
2023-02-05T00:15:47.340Z,0.70
2023-02-05T00:18:14.908Z,1.23
2023-02-05T00:20:42.223Z,0.50
2023-02-05T00:23:09.550Z,0.50
2023-02-05T00:25:36.878Z,1.00
2023-02-05T00:28:04.393Z,0.70
2023-02-05T00:30:31.906Z,0.40
2023-02-05T00:32:59.522Z,0.50
2023-02-05T00:35:26.896Z,0.93
2023-02-05T00:37:54.257Z,1.30
2023-02-05T00:40:21.568Z,0.83
2023-02-05T00:42:48.926Z,0.57
2023-02-05T00:45:16.288Z,1.07
2023-02-05T00:47:43.650Z,0.73
2023-02-05T00:50:10.976Z,0.53
2023-02-05T00:52:38.490Z,1.53
2023-02-05T00:55:06.261Z,0.90
2023-02-05T00:57:33.610Z,0.57
2023-02-05T01:00:01.049Z,0.30
2023-02-05T01:02:28.391Z,0.30
2023-02-05T01:04:58.687Z,0.30
2023-02-05T01:07:26.069Z,0.77
2023-02-05T01:09:53.525Z,0.50
2023-02-05T01:12:21.138Z,0.40
2023-02-05T01:14:48.419Z,0.30
2023-02-05T01:17:15.663Z,0.30
2023-02-05T01:19:43.099Z,0.57
2023-02-05T01:22:11.612Z,0.57
2023-02-05T01:24:39.186Z,0.40
2023-02-05T01:27:06.541Z,0.70
2023-02-05T01:29:33.886Z,0.80
2023-02-05T01:32:01.168Z,0.50
2023-02-05T01:34:28.609Z,0.60
2023-02-05T01:36:58.543Z,0.40
2023-02-05T01:39:25.823Z,1.13
2023-02-05T01:41:53.147Z,0.30
2023-02-05T01:44:24.977Z,1.73
2023-02-05T01:46:55.543Z,0.67
2023-02-05T01:49:26.008Z,0.40
2023-02-05T01:51:54.325Z,0.40
2023-02-05T01:54:26.361Z,0.93
2023-02-05T01:56:57.877Z,0.40
2023-02-05T01:59:27.452Z,0.30
2023-02-05T02:01:55.875Z,0.37
2023-02-05T02:04:35.801Z,0.30
2023-02-05T02:07:03.813Z,0.80
2023-02-05T02:09:31.170Z,0.80
2023-02-05T02:11:59.404Z,0.53
2023-02-05T02:14:27.686Z,0.30
2023-02-05T02:16:55.380Z,0.70
2023-02-05T02:19:29.839Z,0.40
2023-02-05T02:22:03.000Z,0.40
2023-02-05T02:24:30.244Z,0.50
2023-02-05T02:27:00.760Z,0.53
2023-02-05T02:29:30.883Z,0.47
2023-02-05T02:32:00.963Z,0.70
2023-02-05T02:34:33.021Z,0.40
2023-02-05T02:37:06.587Z,3.03
2023-02-05T02:39:37.678Z,0.67
2023-02-05T02:42:09.389Z,0.50
2023-02-05T02:44:49.931Z,2.00
2023-02-05T02:47:19.470Z,1.07
2023-02-05T02:50:10.208Z,0.83
2023-02-05T02:52:39.949Z,0.50
2023-02-05T02:55:09.666Z,0.73
2023-02-05T02:57:38.722Z,0.40
2023-02-05T03:00:10.309Z,0.80
2023-02-05T03:02:38.393Z,0.40
2023-02-05T03:05:08.451Z,0.90
2023-02-05T03:07:37.972Z,1.30
2023-02-05T03:10:17.338Z,0.47
2023-02-05T03:12:44.734Z,0.60
2023-02-05T03:15:12.633Z,0.57
2023-02-05T03:17:41.013Z,0.33
2023-02-05T03:20:14.557Z,0.50
2023-02-05T03:22:41.956Z,0.40
2023-02-05T03:25:09.968Z,0.33
2023-02-05T03:27:37.852Z,0.53
2023-02-05T03:30:06.175Z,0.40
2023-02-05T03:32:42.514Z,0.40
2023-02-05T03:35:10.048Z,0.40
2023-02-05T03:37:43.526Z,0.40
2023-02-05T03:40:10.964Z,0.40
2023-02-05T03:42:48.210Z,0.30
2023-02-05T03:45:27.908Z,0.40
2023-02-05T03:48:03.888Z,0.30
2023-02-05T03:50:33.598Z,0.30
2023-02-05T03:53:23.110Z,0.40
2023-02-05T03:55:53.483Z,0.47
2023-02-05T03:58:25.734Z,0.60
2023-02-05T04:00:53.172Z,1.00
2023-02-05T04:03:20.508Z,0.40
2023-02-05T04:05:47.839Z,0.73
2023-02-05T04:08:15.243Z,0.60
2023-02-05T04:10:42.626Z,0.40
2023-02-05T04:13:10.351Z,0.27
2023-02-05T04:15:37.810Z,0.60
2023-02-05T04:18:05.262Z,0.30
2023-02-05T04:20:32.552Z,0.30
2023-02-05T04:22:59.864Z,0.40
2023-02-05T04:25:27.230Z,0.53
2023-02-05T04:27:54.910Z,0.30
2023-02-05T04:30:22.563Z,0.70
2023-02-05T04:32:50.094Z,0.60
2023-02-05T04:35:17.507Z,0.50
2023-02-05T04:37:45.049Z,0.40
2023-02-05T04:40:12.605Z,0.70
2023-02-05T04:42:39.931Z,0.40
2023-02-05T04:45:07.507Z,0.70
2023-02-05T04:47:35.271Z,0.30
2023-02-05T04:50:02.637Z,0.57
2023-02-05T04:52:30.025Z,0.60
2023-02-05T04:54:57.397Z,0.80
2023-02-05T04:57:24.760Z,0.60
2023-02-05T04:59:52.201Z,0.60
2023-02-05T05:02:19.595Z,0.30
2023-02-05T05:04:46.925Z,0.70
2023-02-05T05:07:14.599Z,0.70
2023-02-05T05:09:41.846Z,1.40
2023-02-05T05:12:09.254Z,0.40
2023-02-05T05:14:37.704Z,0.50
2023-02-05T05:17:05.065Z,0.40
2023-02-05T05:19:32.353Z,0.97
2023-02-05T05:21:59.843Z,0.77
2023-02-05T05:24:27.166Z,0.57
2023-02-05T05:26:54.430Z,0.87
2023-02-05T05:29:21.708Z,0.97
2023-02-05T05:31:49.123Z,1.73
2023-02-05T05:34:16.717Z,0.93
2023-02-05T05:36:44.132Z,0.53
2023-02-05T05:39:30.209Z,0.50
2023-02-05T05:42:15.980Z,1.07
2023-02-05T05:44:43.324Z,0.43
2023-02-05T05:47:10.734Z,0.67
2023-02-05T05:49:38.131Z,1.07
2023-02-05T05:52:05.674Z,0.70
2023-02-05T05:54:33.032Z,0.50
2023-02-05T05:57:00.445Z,0.60
2023-02-05T05:59:27.733Z,0.70
2023-02-05T06:01:55.093Z,0.83
2023-02-05T06:04:22.442Z,0.97
2023-02-05T06:06:49.968Z,1.73
2023-02-05T06:09:17.399Z,2.00
2023-02-05T06:11:44.753Z,1.00
2023-02-05T06:14:12.119Z,0.93
2023-02-05T06:16:40.415Z,0.70
2023-02-05T06:19:07.720Z,1.77
2023-02-05T06:21:35.160Z,1.43
2023-02-05T06:24:02.521Z,0.90
2023-02-05T06:26:29.801Z,1.60
2023-02-05T06:28:57.379Z,0.60
2023-02-05T06:31:24.844Z,0.63
2023-02-05T06:33:52.241Z,0.50
2023-02-05T06:36:19.597Z,0.67
2023-02-05T06:38:46.890Z,0.70
2023-02-05T06:41:14.200Z,0.77
2023-02-05T06:43:41.450Z,0.70
2023-02-05T06:46:08.751Z,1.03
2023-02-05T06:48:36.121Z,0.60
2023-02-05T06:51:03.439Z,0.70
2023-02-05T06:53:30.838Z,2.30
2023-02-05T06:56:01.567Z,1.40
2023-02-05T06:58:28.878Z,1.10
2023-02-05T07:00:56.281Z,0.90
2023-02-05T07:03:23.600Z,0.80
2023-02-05T07:05:50.963Z,1.60
2023-02-05T07:08:18.371Z,0.63
2023-02-05T07:10:45.803Z,1.30
2023-02-05T07:13:13.219Z,0.80
2023-02-05T07:15:40.571Z,0.70
2023-02-05T07:18:07.929Z,1.07
2023-02-05T07:20:35.184Z,0.70
2023-02-05T07:23:02.523Z,1.10
2023-02-05T07:25:32.824Z,2.10
2023-02-05T07:28:00.722Z,3.23
2023-02-05T07:30:27.948Z,2.40
2023-02-05T07:32:55.238Z,2.20
2023-02-05T07:35:22.490Z,0.90
2023-02-05T07:37:49.806Z,1.33
2023-02-05T07:40:17.148Z,1.50
2023-02-05T07:42:44.417Z,0.97
2023-02-05T07:45:11.719Z,1.00
2023-02-05T07:47:39.007Z,1.30
2023-02-05T07:50:06.568Z,11.87
2023-02-05T07:52:34.239Z,25.80
2023-02-05T07:55:01.630Z,31.93
2023-02-05T07:57:28.981Z,9.73
2023-02-05T07:59:56.278Z,2.23
2023-02-05T08:02:23.485Z,1.60
2023-02-05T08:04:50.715Z,1.03
2023-02-05T08:07:18.002Z,1.00
2023-02-05T08:09:45.356Z,2.03
2023-02-05T08:12:12.646Z,1.90
2023-02-05T08:14:39.917Z,2.77
2023-02-05T08:17:10.684Z,1.90
2023-02-05T08:19:38.078Z,1.77
2023-02-05T08:22:05.361Z,2.20
2023-02-05T08:24:33.040Z,2.03
2023-02-05T08:27:00.477Z,2.67
2023-02-05T08:29:27.893Z,2.47
2023-02-05T08:31:55.270Z,3.97
2023-02-05T08:34:22.603Z,3.50
2023-02-05T08:36:50.002Z,3.73
2023-02-05T08:39:17.419Z,3.93
2023-02-05T08:41:44.799Z,3.73
2023-02-05T08:44:12.120Z,4.63
2023-02-05T08:46:49.839Z,2.80
2023-02-05T08:49:18.151Z,4.97
2023-02-05T08:51:45.508Z,3.00
2023-02-05T08:54:13.656Z,3.00
2023-02-05T08:56:41.561Z,4.50
2023-02-05T08:59:09.225Z,4.23
2023-02-05T09:01:43.317Z,5.83
2023-02-05T09:04:20.769Z,5.07
2023-02-05T09:06:48.398Z,7.53
2023-02-05T09:09:15.929Z,7.43
2023-02-05T09:11:43.640Z,7.13
2023-02-05T09:14:11.014Z,8.60
2023-02-05T09:16:38.621Z,6.97
2023-02-05T09:19:06.521Z,7.77
2023-02-05T09:21:34.127Z,8.47
2023-02-05T09:24:01.470Z,9.10
2023-02-05T09:26:28.805Z,7.50
2023-02-05T09:28:56.165Z,8.67
2023-02-05T09:31:23.805Z,10.03
2023-02-05T09:33:51.202Z,12.00
2023-02-05T09:36:20.324Z,10.97
2023-02-05T09:38:48.204Z,9.33
2023-02-05T09:41:15.644Z,9.83
2023-02-05T09:43:49.432Z,9.67
2023-02-05T09:46:16.933Z,10.47
2023-02-05T09:48:59.853Z,10.30
2023-02-05T09:51:37.289Z,9.67
2023-02-05T09:54:07.700Z,9.73
2023-02-05T09:56:36.996Z,11.17
2023-02-05T09:59:05.686Z,8.93
2023-02-05T10:01:41.768Z,12.20
2023-02-05T10:04:09.710Z,9.03
2023-02-05T10:06:37.122Z,11.13
2023-02-05T10:09:24.680Z,9.27
2023-02-05T10:12:10.559Z,11.43
2023-02-05T10:14:56.460Z,9.60
2023-02-05T10:17:41.881Z,8.43
2023-02-05T10:20:09.205Z,11.37
2023-02-05T10:22:36.598Z,11.63
2023-02-05T10:25:22.679Z,10.27
2023-02-05T10:28:05.356Z,9.70
2023-02-05T10:30:35.764Z,8.77
2023-02-05T10:33:13.321Z,11.53
2023-02-05T10:35:45.805Z,8.63
2023-02-05T10:38:17.407Z,7.97
2023-02-05T10:40:46.805Z,8.93
2023-02-05T10:43:24.890Z,8.13
2023-02-05T10:45:52.639Z,9.17
2023-02-05T10:48:35.037Z,7.73
2023-02-05T10:51:14.286Z,11.20
2023-02-05T10:53:41.705Z,8.27
2023-02-05T10:56:09.331Z,7.70
2023-02-05T10:58:37.844Z,8.23
2023-02-05T11:01:36.126Z,9.40
2023-02-05T11:04:14.521Z,8.57
2023-02-05T11:06:43.723Z,8.13
2023-02-05T11:09:26.364Z,7.97
2023-02-05T11:11:54.933Z,8.37
2023-02-05T11:14:43.778Z,8.43
2023-02-05T11:17:21.359Z,9.80
2023-02-05T11:19:55.642Z,7.87
2023-02-05T11:22:28.002Z,9.17
2023-02-05T11:25:05.682Z,7.17
2023-02-05T11:27:33.718Z,8.40
2023-02-05T11:30:42.101Z,7.57
2023-02-05T11:33:27.205Z,9.27
2023-02-05T11:35:56.546Z,7.57
2023-02-05T11:38:24.061Z,7.30
2023-02-05T11:40:54.680Z,9.47
2023-02-05T11:43:42.326Z,7.93
2023-02-05T11:46:11.340Z,10.30
2023-02-05T11:48:43.645Z,9.67
2023-02-05T11:51:15.543Z,8.10
2023-02-05T11:54:02.218Z,8.73
2023-02-05T11:56:29.571Z,6.77
2023-02-05T11:59:00.365Z,9.57
2023-02-05T12:01:32.670Z,8.43
2023-02-05T12:04:00.396Z,7.03
2023-02-05T12:06:32.044Z,7.93
2023-02-05T12:08:59.406Z,7.00
2023-02-05T12:11:26.687Z,7.77
2023-02-05T12:14:02.332Z,7.03
2023-02-05T12:16:29.761Z,7.93
2023-02-05T12:18:59.871Z,6.33
2023-02-05T12:21:27.127Z,7.50
2023-02-05T12:24:00.409Z,6.40
2023-02-05T12:26:27.777Z,7.77
2023-02-05T12:28:55.167Z,6.53
2023-02-05T12:31:22.578Z,6.53
2023-02-05T12:33:56.130Z,7.57
2023-02-05T12:36:23.403Z,5.60
2023-02-05T12:39:06.059Z,6.17
2023-02-05T12:41:50.080Z,6.10
2023-02-05T12:44:37.914Z,8.97
2023-02-05T12:47:14.439Z,6.30
2023-02-05T12:50:00.331Z,6.20
2023-02-05T12:52:53.677Z,7.23
2023-02-05T12:55:27.080Z,5.97
2023-02-05T12:57:57.233Z,6.17
2023-02-05T13:00:27.850Z,5.73
2023-02-05T13:03:12.057Z,6.67
2023-02-05T13:05:43.043Z,5.67
2023-02-05T13:08:16.326Z,6.17
2023-02-05T13:10:48.363Z,6.30
2023-02-05T13:13:23.333Z,5.80
2023-02-05T13:15:58.243Z,5.60
2023-02-05T13:18:30.447Z,5.17
2023-02-05T13:21:19.394Z,5.23
2023-02-05T13:24:06.296Z,6.23
2023-02-05T13:26:55.816Z,6.40
2023-02-05T13:29:24.763Z,5.67
2023-02-05T13:31:56.973Z,4.23
2023-02-05T13:34:24.691Z,4.80
2023-02-05T13:37:11.303Z,6.23
2023-02-05T13:39:38.724Z,5.17
2023-02-05T13:42:06.520Z,5.53
2023-02-05T13:44:54.147Z,5.57
2023-02-05T13:47:40.162Z,5.33
2023-02-05T13:50:23.261Z,5.37
2023-02-05T13:52:56.559Z,4.43
2023-02-05T13:55:30.118Z,4.60
2023-02-05T13:58:06.842Z,5.80
2023-02-05T14:00:35.081Z,4.00
2023-02-05T14:03:05.846Z,4.20
2023-02-05T14:05:38.279Z,4.07
2023-02-05T14:08:06.737Z,4.97
2023-02-05T14:10:40.828Z,3.80
2023-02-05T14:13:20.435Z,4.03
2023-02-05T14:15:47.996Z,4.83
2023-02-05T14:18:34.282Z,4.57
2023-02-05T14:21:01.613Z,4.17
2023-02-05T14:23:47.022Z,5.47
2023-02-05T14:26:14.646Z,5.10
2023-02-05T14:28:49.815Z,4.50
2023-02-05T14:31:36.017Z,4.60
2023-02-05T14:34:38.612Z,4.40
2023-02-05T14:37:06.206Z,5.27
2023-02-05T14:39:34.653Z,3.87
2023-02-05T14:42:06.134Z,5.03
2023-02-05T14:44:35.859Z,5.57
2023-02-05T14:47:25.926Z,5.10
2023-02-05T14:49:59.187Z,5.93
2023-02-05T14:52:35.532Z,5.17
2023-02-05T14:55:08.377Z,8.00
2023-02-05T14:57:55.965Z,5.10
2023-02-05T15:00:29.320Z,3.93
2023-02-05T15:03:02.233Z,5.03
2023-02-05T15:05:32.762Z,5.13
2023-02-05T15:08:06.592Z,3.93
2023-02-05T15:10:37.524Z,5.60
2023-02-05T15:13:11.502Z,4.70
2023-02-05T15:15:39.295Z,4.67
2023-02-05T15:18:26.901Z,4.97
2023-02-05T15:20:56.427Z,3.63
2023-02-05T15:23:24.324Z,4.43
2023-02-05T15:25:55.083Z,4.87
2023-02-05T15:28:30.433Z,5.17
2023-02-05T15:31:06.978Z,4.43
2023-02-05T15:33:40.884Z,4.50
2023-02-05T15:36:13.048Z,16.80
2023-02-05T15:38:44.933Z,7.93
2023-02-05T15:41:14.689Z,7.13
2023-02-05T15:43:42.087Z,4.20
2023-02-05T15:46:12.797Z,10.47
2023-02-05T15:48:41.054Z,5.77
2023-02-05T15:51:19.713Z,5.73
2023-02-05T15:53:49.576Z,6.77
2023-02-05T15:56:35.808Z,6.97
2023-02-05T15:59:07.762Z,4.23
2023-02-05T16:01:40.084Z,4.20
2023-02-05T16:04:27.725Z,5.97
2023-02-05T16:06:55.257Z,4.00
2023-02-05T16:09:24.343Z,3.47
2023-02-05T16:11:52.133Z,5.93
2023-02-05T16:14:20.925Z,7.07
2023-02-05T16:16:48.164Z,3.83
2023-02-05T16:19:19.530Z,5.70
2023-02-05T16:21:54.006Z,4.33
2023-02-05T16:24:36.227Z,4.07
2023-02-05T16:27:08.309Z,4.03
2023-02-05T16:29:47.660Z,3.80
2023-02-05T16:32:28.806Z,4.70
2023-02-05T16:34:56.298Z,4.37
2023-02-05T16:37:25.758Z,3.40
2023-02-05T16:39:54.801Z,3.40
2023-02-05T16:42:28.219Z,3.47
2023-02-05T16:45:13.881Z,3.20
2023-02-05T16:47:41.318Z,3.80
2023-02-05T16:50:27.417Z,3.63
2023-02-05T16:52:59.310Z,3.80
2023-02-05T16:55:26.571Z,6.33
2023-02-05T16:57:54.797Z,7.77
2023-02-05T17:00:24.084Z,6.97
2023-02-05T17:02:56.428Z,6.43
2023-02-05T17:05:28.668Z,7.53
2023-02-05T17:08:06.746Z,7.00
2023-02-05T17:10:49.082Z,7.10
2023-02-05T17:13:37.136Z,5.13
2023-02-05T17:16:22.899Z,8.93
2023-02-05T17:19:00.104Z,9.87
2023-02-05T17:21:31.544Z,7.17
2023-02-05T17:24:01.696Z,4.67
2023-02-05T17:26:31.845Z,4.07
2023-02-05T17:29:01.194Z,5.10
2023-02-05T17:31:29.548Z,5.40
2023-02-05T17:33:58.486Z,7.37
2023-02-05T17:36:26.571Z,5.80
2023-02-05T17:38:54.543Z,5.20
2023-02-05T17:42:04.748Z,5.17
2023-02-05T17:44:34.231Z,4.73
2023-02-05T17:47:02.453Z,9.27
2023-02-05T17:49:30.108Z,6.53
2023-02-05T17:51:57.578Z,5.50
2023-02-05T17:54:25.901Z,3.97
2023-02-05T17:56:55.127Z,3.37
2023-02-05T17:59:23.246Z,2.93
2023-02-05T18:01:50.828Z,4.03
2023-02-05T18:04:18.813Z,3.17
2023-02-05T18:06:48.693Z,1.60
2023-02-05T18:09:16.786Z,1.43
2023-02-05T18:11:44.205Z,1.30
2023-02-05T18:14:12.671Z,1.20
2023-02-05T18:16:40.094Z,1.10
2023-02-05T18:19:07.550Z,1.87
2023-02-05T18:21:36.164Z,1.40
2023-02-05T18:24:04.498Z,1.23
2023-02-05T18:26:32.142Z,0.93
2023-02-05T18:28:59.526Z,1.27
2023-02-05T18:31:27.081Z,1.13
2023-02-05T18:33:54.564Z,1.37
2023-02-05T18:36:22.027Z,1.73
2023-02-05T18:38:49.396Z,0.87
2023-02-05T18:41:17.894Z,1.20
2023-02-05T18:43:45.354Z,0.63
2023-02-05T18:46:14.755Z,0.53
2023-02-05T18:48:42.730Z,0.40
2023-02-05T18:51:11.731Z,1.00
2023-02-05T18:53:39.853Z,1.00
2023-02-05T18:56:08.935Z,0.70
2023-02-05T18:58:36.519Z,5.03
2023-02-05T19:01:14.433Z,1.23
2023-02-05T19:03:42.391Z,1.20
2023-02-05T19:06:10.210Z,1.77
2023-02-05T19:08:37.856Z,6.43
2023-02-05T19:11:12.732Z,1.57
2023-02-05T19:13:40.063Z,0.80
2023-02-05T19:16:12.943Z,0.93
2023-02-05T19:18:44.343Z,0.77
2023-02-05T19:21:13.360Z,0.97
2023-02-05T19:23:40.966Z,2.30
2023-02-05T19:26:09.601Z,1.73
2023-02-05T19:28:37.928Z,1.37
2023-02-05T19:31:06.329Z,0.73
2023-02-05T19:33:34.598Z,0.43
2023-02-05T19:36:03.352Z,0.40
2023-02-05T19:38:31.074Z,0.40
2023-02-05T19:41:05.444Z,0.60
2023-02-05T19:43:32.844Z,0.60
2023-02-05T19:46:07.106Z,0.40
2023-02-05T19:48:34.921Z,0.30
2023-02-05T19:51:06.409Z,0.40
2023-02-05T19:53:34.384Z,0.30
2023-02-05T19:56:07.005Z,0.43
2023-02-05T19:58:35.334Z,0.50
2023-02-05T20:01:02.653Z,0.40
2023-02-05T20:03:30.290Z,0.40
2023-02-05T20:06:01.194Z,0.40
2023-02-05T20:08:29.526Z,0.60
2023-02-05T20:10:57.643Z,0.40
2023-02-05T20:13:28.612Z,0.40
2023-02-05T20:15:55.977Z,1.43
2023-02-05T20:18:23.442Z,0.60
2023-02-05T20:20:50.842Z,0.97
2023-02-05T20:23:18.200Z,0.60
2023-02-05T20:25:52.777Z,0.60
2023-02-05T20:28:20.196Z,0.97
2023-02-05T20:31:06.434Z,0.53
2023-02-05T20:33:33.960Z,0.80
2023-02-05T20:36:08.437Z,1.33
2023-02-05T20:38:35.958Z,1.53
2023-02-05T20:41:16.598Z,1.77
2023-02-05T20:43:44.561Z,1.37
2023-02-05T20:46:12.046Z,1.43
2023-02-05T20:48:41.022Z,1.50
2023-02-05T20:51:12.944Z,1.57
2023-02-05T20:53:40.768Z,2.17
2023-02-05T20:56:09.570Z,1.37
2023-02-05T20:58:37.201Z,2.53
2023-02-05T21:01:08.914Z,2.00
2023-02-05T21:03:36.919Z,1.67
2023-02-05T21:06:04.679Z,1.77
2023-02-05T21:08:32.598Z,2.13
2023-02-05T21:10:59.909Z,2.23
2023-02-05T21:13:30.320Z,2.10
2023-02-05T21:16:01.389Z,2.33
2023-02-05T21:18:29.485Z,1.40
2023-02-05T21:20:57.240Z,1.50
2023-02-05T21:23:24.685Z,1.37
2023-02-05T21:25:52.049Z,1.60
2023-02-05T21:28:19.369Z,1.40
2023-02-05T21:30:51.133Z,1.30
2023-02-05T21:33:18.906Z,1.10
2023-02-05T21:35:46.199Z,2.23
2023-02-05T21:38:13.651Z,1.50
2023-02-05T21:40:41.000Z,1.40
2023-02-05T21:43:08.397Z,1.13
2023-02-05T21:45:37.014Z,2.03
2023-02-05T21:48:04.628Z,2.40
2023-02-05T21:50:32.039Z,2.90
2023-02-05T21:52:59.442Z,2.47
2023-02-05T21:55:27.076Z,2.13
2023-02-05T21:57:54.403Z,2.33
2023-02-05T22:00:21.811Z,1.30
2023-02-05T22:02:49.243Z,1.30
2023-02-05T22:05:16.773Z,1.40
2023-02-05T22:07:44.047Z,1.30
2023-02-05T22:10:11.571Z,1.93
2023-02-05T22:12:38.982Z,1.63
2023-02-05T22:15:06.523Z,1.57
2023-02-05T22:17:33.893Z,1.80
2023-02-05T22:20:01.242Z,1.63
2023-02-05T22:22:28.524Z,1.60
2023-02-05T22:24:55.930Z,1.50
2023-02-05T22:27:23.802Z,3.27
2023-02-05T22:29:51.128Z,1.70
2023-02-05T22:32:18.562Z,2.23
2023-02-05T22:34:45.966Z,3.00
2023-02-05T22:37:13.487Z,3.97
2023-02-05T22:39:42.926Z,3.47
2023-02-05T22:42:10.286Z,5.13
2023-02-05T22:44:37.794Z,2.40
2023-02-05T22:47:05.251Z,2.93
2023-02-05T22:49:32.645Z,1.77
2023-02-05T22:52:00.006Z,3.83
2023-02-05T22:54:27.485Z,1.87
2023-02-05T22:56:54.885Z,1.80
2023-02-05T22:59:22.311Z,2.37
2023-02-05T23:01:49.605Z,3.03
2023-02-05T23:04:17.002Z,2.67
2023-02-05T23:06:45.282Z,3.10
2023-02-05T23:09:14.087Z,2.87
2023-02-05T23:11:41.810Z,2.40
2023-02-05T23:14:09.684Z,4.50
2023-02-05T23:16:41.360Z,2.77
2023-02-05T23:19:10.325Z,2.80
2023-02-05T23:21:38.405Z,3.17
2023-02-05T23:24:06.015Z,3.10
2023-02-05T23:26:34.760Z,3.00
2023-02-05T23:29:02.243Z,3.37
2023-02-05T23:31:29.625Z,3.83
2023-02-05T23:33:57.162Z,3.53
2023-02-05T23:36:24.600Z,3.50
2023-02-05T23:38:51.954Z,4.63
2023-02-05T23:41:35.857Z,4.57
2023-02-05T23:44:08.370Z,5.17
2023-02-05T23:46:36.571Z,5.13
2023-02-05T23:49:04.449Z,4.17
2023-02-05T23:51:32.135Z,2.67
2023-02-05T23:53:59.764Z,2.37
2023-02-05T23:56:27.246Z,4.20
2023-02-05T23:58:54.644Z,3.80
